Washington, DC (20376)

10:09 AM EDT on September 16, 2014 (GMT -0400)
Eckington Pl, NE | Change Station
CLOSE
Current Station
Personal Weather Station
Location: Washington, DC
Elevation: 90 ft
Nearby Weather Stations

Elev 90 ft 38.91 °N, 77.01 °W | Updated 2 minutes ago

Clear
Clear
71.9 °F
Feels Like 76 °F
N
9.0
Wind Variable Wind from West
Gusts 18.0 mph

Today
High -- | Low -- °F
--% Chance of Precip.
Yesterday
High -- | Low -- °F
Precip. -- in
6:50 AM 7:14 PM
Last Quarter, 45% visible
Pressure 30.04 in
Visibility 10.0 miles
Clouds Few 6000 ft
Scattered Clouds 12000 ft
Heat Index 76 °F
Dew Point 56 °F
Humidity 58%
Rainfall -999.00 in
Snow Depth Not available.
UV 3 out of 12
Pollen 5.80 out of 12
Air Quality Not available.
Flu Activity Not available.
METAR KDCA 161352Z 32014G19KT 10SM FEW060 SCT120 24/12 A3004 RMK AO2 SLP173 ACSL SE T02390122

More Conditions Fewer Conditions

Pressure 30.04 in
Visibility 10.0 miles
Clouds Few 6000 ft
Scattered Clouds 12000 ft
Heat Index 76 °F
Dew Point 56 °F
Humidity 58%
Rainfall -999.00 in
Snow Depth Not available.
UV 3 out of 12
Pollen 5.80 out of 12
Air Quality Not available.
Flu Activity Not available.
METAR KDCA 161352Z 32014G19KT 10SM FEW060 SCT120 24/12 A3004 RMK AO2 SLP173 ACSL SE T02390122

More Conditions Fewer Conditions

10-Day Weather Forecast

Almanac

Astronomy

Sep. 16, 2014 Rise Set
Actual Time 6:50 AM EDT 7:14 PM EDT
Civil Twilight 6:23 AM EDT 7:41 PM EDT
Nautical Twilight 5:52 AM EDT 8:12 PM EDT
Astronomical Twilight 5:19 AM EDT 8:44 PM EDT
Moon 12:00 AM EDT 2:34 PM EDT
Length of Visible Light 13h 17m
Length of Day
12h 24m
Tomorrow will be 2m 30s shorter.
Last Quarter, 45% of the Moon is Illuminated
Today
Last Quarter
Sep 24
New
Oct 1
First Quarter
Oct 8
Full
Oct 15
Last Quarter

Today's Extremes

State Highs State Lows

Community

WunderPhotos

Upload Photos

1,753,780 photos uploaded!

Nearby

Snow Depth

Station Depth Elevation
No new snow has been reported.

Earthquake Activity

City Distance Mag. Time & Date
No recent earthquake activity has been reported nearby.
Minimum magnitude displayed is 2.5.

Coastal Water Temperatures

Place Temperature
Washington, DC 75.0 °F
Baltimore, MD 77.0 °F
Solomons Island, MD 75.9 °F

Nearby Weather Stations